sensor_id;sensor_type;location;lat;lon;timestamp;temperature;humidity
10964;DHT22;5534;48.784;9.190;2023-04-03T00:00:06;8.00;99.90
10964;DHT22;5534;48.784;9.190;2023-04-03T00:02:32;8.00;99.90
10964;DHT22;5534;48.784;9.190;2023-04-03T00:04:58;7.70;99.90
10964;DHT22;5534;48.784;9.190;2023-04-03T00:07:24;7.90;99.90
10964;DHT22;5534;48.784;9.190;2023-04-03T00:09:49;8.00;99.90
10964;DHT22;5534;48.784;9.190;2023-04-03T00:12:15;7.80;99.90
10964;DHT22;5534;48.784;9.190;2023-04-03T00:14:41;8.00;99.90
10964;DHT22;5534;48.784;9.190;2023-04-03T00:17:07;7.90;99.90
10964;DHT22;5534;48.784;9.190;2023-04-03T00:19:33;7.80;99.90
10964;DHT22;5534;48.784;9.190;2023-04-03T00:21:58;7.80;99.90
10964;DHT22;5534;48.784;9.190;2023-04-03T00:24:24;7.80;99.90
10964;DHT22;5534;48.784;9.190;2023-04-03T00:26:50;7.90;99.90
10964;DHT22;5534;48.784;9.190;2023-04-03T00:29:16;8.00;99.90
10964;DHT22;5534;48.784;9.190;2023-04-03T00:31:42;7.90;99.90
10964;DHT22;5534;48.784;9.190;2023-04-03T00:34:07;7.90;99.90
10964;DHT22;5534;48.784;9.190;2023-04-03T00:36:33;7.90;99.90
10964;DHT22;5534;48.784;9.190;2023-04-03T00:38:59;7.90;99.90
10964;DHT22;5534;48.784;9.190;2023-04-03T00:41:25;7.90;99.90
10964;DHT22;5534;48.784;9.190;2023-04-03T00:43:51;7.90;99.90
10964;DHT22;5534;48.784;9.190;2023-04-03T00:46:16;7.90;99.90
10964;DHT22;5534;48.784;9.190;2023-04-03T00:48:44;7.90;99.90
10964;DHT22;5534;48.784;9.190;2023-04-03T00:51:25;8.00;99.90
10964;DHT22;5534;48.784;9.190;2023-04-03T00:54:00;7.90;99.90
10964;DHT22;5534;48.784;9.190;2023-04-03T00:56:29;7.80;99.90
10964;DHT22;5534;48.784;9.190;2023-04-03T00:59:09;7.80;99.90
10964;DHT22;5534;48.784;9.190;2023-04-03T01:01:36;7.90;99.90
10964;DHT22;5534;48.784;9.190;2023-04-03T01:04:03;7.90;99.90
10964;DHT22;5534;48.784;9.190;2023-04-03T01:06:35;7.90;99.90
10964;DHT22;5534;48.784;9.190;2023-04-03T01:09:02;7.90;99.90
10964;DHT22;5534;48.784;9.190;2023-04-03T01:11:28;7.90;99.90
10964;DHT22;5534;48.784;9.190;2023-04-03T01:13:54;7.90;99.90
10964;DHT22;5534;48.784;9.190;2023-04-03T01:16:20;7.90;99.90
10964;DHT22;5534;48.784;9.190;2023-04-03T01:18:46;7.90;99.90
10964;DHT22;5534;48.784;9.190;2023-04-03T01:26:04;7.90;99.90
10964;DHT22;5534;48.784;9.190;2023-04-03T01:28:34;7.80;99.90
10964;DHT22;5534;48.784;9.190;2023-04-03T01:33:32;7.70;99.90
10964;DHT22;5534;48.784;9.190;2023-04-03T01:35:58;7.60;99.90
10964;DHT22;5534;48.784;9.190;2023-04-03T01:38:24;7.60;99.90
10964;DHT22;5534;48.784;9.190;2023-04-03T01:40:49;7.70;99.90
10964;DHT22;5534;48.784;9.190;2023-04-03T01:43:15;7.70;99.90
10964;DHT22;5534;48.784;9.190;2023-04-03T01:45:41;7.60;99.90
10964;DHT22;5534;48.784;9.190;2023-04-03T01:48:07;7.60;99.90
10964;DHT22;5534;48.784;9.190;2023-04-03T01:50:33;7.60;99.90
10964;DHT22;5534;48.784;9.190;2023-04-03T01:52:59;7.70;99.90
10964;DHT22;5534;48.784;9.190;2023-04-03T01:55:24;7.60;99.90
10964;DHT22;5534;48.784;9.190;2023-04-03T01:57:50;7.60;99.90
10964;DHT22;5534;48.784;9.190;2023-04-03T02:00:16;7.60;99.90
10964;DHT22;5534;48.784;9.190;2023-04-03T02:02:42;7.60;99.90
10964;DHT22;5534;48.784;9.190;2023-04-03T02:05:08;7.70;99.90
10964;DHT22;5534;48.784;9.190;2023-04-03T02:07:34;7.60;99.90
10964;DHT22;5534;48.784;9.190;2023-04-03T02:10:00;7.60;99.90
10964;DHT22;5534;48.784;9.190;2023-04-03T02:12:25;7.60;99.90
10964;DHT22;5534;48.784;9.190;2023-04-03T02:14:51;7.60;99.90
10964;DHT22;5534;48.784;9.190;2023-04-03T02:17:17;7.60;99.90
10964;DHT22;5534;48.784;9.190;2023-04-03T02:19:43;7.60;99.90
10964;DHT22;5534;48.784;9.190;2023-04-03T02:22:09;7.70;99.90
10964;DHT22;5534;48.784;9.190;2023-04-03T02:24:35;7.60;99.90
10964;DHT22;5534;48.784;9.190;2023-04-03T02:27:01;7.50;99.90
10964;DHT22;5534;48.784;9.190;2023-04-03T02:29:27;7.60;99.90
10964;DHT22;5534;48.784;9.190;2023-04-03T02:31:53;7.60;99.90
10964;DHT22;5534;48.784;9.190;2023-04-03T02:34:18;7.70;99.90
10964;DHT22;5534;48.784;9.190;2023-04-03T02:36:44;7.70;99.90
10964;DHT22;5534;48.784;9.190;2023-04-03T02:39:10;7.50;99.90
10964;DHT22;5534;48.784;9.190;2023-04-03T02:41:36;7.30;99.90
10964;DHT22;5534;48.784;9.190;2023-04-03T02:44:03;7.50;99.90
10964;DHT22;5534;48.784;9.190;2023-04-03T02:46:29;7.50;99.90
10964;DHT22;5534;48.784;9.190;2023-04-03T02:48:55;7.60;99.90
10964;DHT22;5534;48.784;9.190;2023-04-03T02:51:21;7.50;99.90
10964;DHT22;5534;48.784;9.190;2023-04-03T02:53:48;7.50;99.90
10964;DHT22;5534;48.784;9.190;2023-04-03T02:56:15;7.60;99.90
10964;DHT22;5534;48.784;9.190;2023-04-03T02:58:42;7.60;99.90
10964;DHT22;5534;48.784;9.190;2023-04-03T03:01:08;7.10;99.90
10964;DHT22;5534;48.784;9.190;2023-04-03T03:03:34;7.30;99.90
10964;DHT22;5534;48.784;9.190;2023-04-03T03:06:08;7.30;99.90
10964;DHT22;5534;48.784;9.190;2023-04-03T03:08:35;7.50;99.90
10964;DHT22;5534;48.784;9.190;2023-04-03T03:11:01;7.60;99.90
10964;DHT22;5534;48.784;9.190;2023-04-03T03:13:27;7.60;99.90
10964;DHT22;5534;48.784;9.190;2023-04-03T03:15:53;7.60;99.90
10964;DHT22;5534;48.784;9.190;2023-04-03T03:18:18;7.70;99.90
10964;DHT22;5534;48.784;9.190;2023-04-03T03:20:45;7.60;99.90
10964;DHT22;5534;48.784;9.190;2023-04-03T03:23:11;7.70;99.90
10964;DHT22;5534;48.784;9.190;2023-04-03T03:25:40;7.70;99.90
10964;DHT22;5534;48.784;9.190;2023-04-03T03:28:06;7.00;99.90
10964;DHT22;5534;48.784;9.190;2023-04-03T03:30:32;7.20;99.90
10964;DHT22;5534;48.784;9.190;2023-04-03T03:32:58;7.40;99.90
10964;DHT22;5534;48.784;9.190;2023-04-03T03:35:23;7.50;99.90
10964;DHT22;5534;48.784;9.190;2023-04-03T03:37:49;7.50;99.90
10964;DHT22;5534;48.784;9.190;2023-04-03T03:40:15;7.50;99.90
10964;DHT22;5534;48.784;9.190;2023-04-03T03:42:41;7.50;99.90
10964;DHT22;5534;48.784;9.190;2023-04-03T03:45:07;7.10;99.90
10964;DHT22;5534;48.784;9.190;2023-04-03T03:47:33;7.20;99.90
10964;DHT22;5534;48.784;9.190;2023-04-03T03:49:59;7.40;99.90
10964;DHT22;5534;48.784;9.190;2023-04-03T03:52:25;7.50;99.90
10964;DHT22;5534;48.784;9.190;2023-04-03T03:54:51;7.60;99.90
10964;DHT22;5534;48.784;9.190;2023-04-03T03:57:17;7.50;99.90
10964;DHT22;5534;48.784;9.190;2023-04-03T03:59:43;7.60;99.90
10964;DHT22;5534;48.784;9.190;2023-04-03T04:02:10;7.60;99.90
10964;DHT22;5534;48.784;9.190;2023-04-03T04:04:36;7.40;99.90
10964;DHT22;5534;48.784;9.190;2023-04-03T04:07:03;7.50;99.90
10964;DHT22;5534;48.784;9.190;2023-04-03T04:09:29;7.40;99.90
10964;DHT22;5534;48.784;9.190;2023-04-03T04:11:54;7.40;99.90
10964;DHT22;5534;48.784;9.190;2023-04-03T04:14:20;7.50;99.90
10964;DHT22;5534;48.784;9.190;2023-04-03T04:16:47;7.60;99.90
10964;DHT22;5534;48.784;9.190;2023-04-03T04:19:13;7.60;99.90
10964;DHT22;5534;48.784;9.190;2023-04-03T04:21:40;7.70;99.90
10964;DHT22;5534;48.784;9.190;2023-04-03T04:24:07;7.70;99.90
10964;DHT22;5534;48.784;9.190;2023-04-03T04:26:34;7.70;99.90
10964;DHT22;5534;48.784;9.190;2023-04-03T04:29:00;7.70;99.90
10964;DHT22;5534;48.784;9.190;2023-04-03T04:31:26;7.70;99.90
10964;DHT22;5534;48.784;9.190;2023-04-03T04:33:52;7.80;99.90
10964;DHT22;5534;48.784;9.190;2023-04-03T04:36:18;7.70;99.90
10964;DHT22;5534;48.784;9.190;2023-04-03T04:38:45;7.80;99.90
10964;DHT22;5534;48.784;9.190;2023-04-03T04:41:10;7.80;99.90
10964;DHT22;5534;48.784;9.190;2023-04-03T04:43:36;7.70;99.90
10964;DHT22;5534;48.784;9.190;2023-04-03T04:46:07;7.60;99.90
10964;DHT22;5534;48.784;9.190;2023-04-03T04:48:34;7.70;99.90
10964;DHT22;5534;48.784;9.190;2023-04-03T04:51:00;7.60;99.90
10964;DHT22;5534;48.784;9.190;2023-04-03T04:53:26;7.70;99.90
10964;DHT22;5534;48.784;9.190;2023-04-03T04:55:52;7.70;99.90
10964;DHT22;5534;48.784;9.190;2023-04-03T04:58:18;7.70;99.90
10964;DHT22;5534;48.784;9.190;2023-04-03T05:00:45;7.70;99.90
10964;DHT22;5534;48.784;9.190;2023-04-03T05:03:11;7.70;99.90
10964;DHT22;5534;48.784;9.190;2023-04-03T05:05:37;7.70;99.90
10964;DHT22;5534;48.784;9.190;2023-04-03T05:08:03;7.70;99.90
10964;DHT22;5534;48.784;9.190;2023-04-03T05:10:29;7.70;99.90
10964;DHT22;5534;48.784;9.190;2023-04-03T05:12:55;7.70;99.90
10964;DHT22;5534;48.784;9.190;2023-04-03T05:15:21;7.70;99.90
10964;DHT22;5534;48.784;9.190;2023-04-03T05:17:49;7.80;99.90
10964;DHT22;5534;48.784;9.190;2023-04-03T05:20:16;7.80;99.90
10964;DHT22;5534;48.784;9.190;2023-04-03T05:22:42;7.80;99.90
10964;DHT22;5534;48.784;9.190;2023-04-03T05:25:08;7.80;99.90
10964;DHT22;5534;48.784;9.190;2023-04-03T05:27:34;7.70;99.90
10964;DHT22;5534;48.784;9.190;2023-04-03T05:30:00;7.60;99.90
10964;DHT22;5534;48.784;9.190;2023-04-03T05:32:26;7.60;99.90
10964;DHT22;5534;48.784;9.190;2023-04-03T05:34:53;7.50;99.90
10964;DHT22;5534;48.784;9.190;2023-04-03T05:37:19;7.50;99.90
10964;DHT22;5534;48.784;9.190;2023-04-03T05:39:45;7.50;99.90
10964;DHT22;5534;48.784;9.190;2023-04-03T05:42:10;7.60;99.90
10964;DHT22;5534;48.784;9.190;2023-04-03T05:44:37;7.70;99.90
10964;DHT22;5534;48.784;9.190;2023-04-03T05:47:03;7.70;99.90
10964;DHT22;5534;48.784;9.190;2023-04-03T05:49:29;7.70;99.90
10964;DHT22;5534;48.784;9.190;2023-04-03T05:51:55;7.70;99.90
10964;DHT22;5534;48.784;9.190;2023-04-03T05:54:24;7.70;99.90
10964;DHT22;5534;48.784;9.190;2023-04-03T05:56:50;7.60;99.90
10964;DHT22;5534;48.784;9.190;2023-04-03T05:59:17;7.60;99.90
10964;DHT22;5534;48.784;9.190;2023-04-03T06:01:43;7.60;99.90
10964;DHT22;5534;48.784;9.190;2023-04-03T06:04:08;7.60;99.90
10964;DHT22;5534;48.784;9.190;2023-04-03T06:06:49;7.60;99.90
10964;DHT22;5534;48.784;9.190;2023-04-03T06:09:17;7.50;99.90
10964;DHT22;5534;48.784;9.190;2023-04-03T06:11:43;7.50;99.90
10964;DHT22;5534;48.784;9.190;2023-04-03T06:14:10;7.50;99.90
10964;DHT22;5534;48.784;9.190;2023-04-03T06:16:36;7.50;99.90
10964;DHT22;5534;48.784;9.190;2023-04-03T06:19:02;7.50;99.90
10964;DHT22;5534;48.784;9.190;2023-04-03T06:21:29;7.50;99.90
10964;DHT22;5534;48.784;9.190;2023-04-03T06:23:55;7.50;99.90
10964;DHT22;5534;48.784;9.190;2023-04-03T06:26:21;7.40;99.90
10964;DHT22;5534;48.784;9.190;2023-04-03T06:28:47;7.50;99.90
10964;DHT22;5534;48.784;9.190;2023-04-03T06:31:13;7.60;99.90
10964;DHT22;5534;48.784;9.190;2023-04-03T06:33:39;7.60;99.90
10964;DHT22;5534;48.784;9.190;2023-04-03T06:36:05;7.50;99.90
10964;DHT22;5534;48.784;9.190;2023-04-03T06:38:34;7.50;99.90
10964;DHT22;5534;48.784;9.190;2023-04-03T06:41:00;7.50;99.90
10964;DHT22;5534;48.784;9.190;2023-04-03T06:43:26;7.30;99.90
10964;DHT22;5534;48.784;9.190;2023-04-03T06:45:52;7.50;99.90
10964;DHT22;5534;48.784;9.190;2023-04-03T06:48:18;7.50;99.90
10964;DHT22;5534;48.784;9.190;2023-04-03T06:50:44;7.50;99.90
10964;DHT22;5534;48.784;9.190;2023-04-03T06:53:10;7.40;99.90
10964;DHT22;5534;48.784;9.190;2023-04-03T06:55:36;7.50;99.90
10964;DHT22;5534;48.784;9.190;2023-04-03T06:58:02;7.60;99.90
10964;DHT22;5534;48.784;9.190;2023-04-03T07:00:29;7.60;99.90
10964;DHT22;5534;48.784;9.190;2023-04-03T07:02:55;7.40;99.90
10964;DHT22;5534;48.784;9.190;2023-04-03T07:05:23;7.40;99.90
10964;DHT22;5534;48.784;9.190;2023-04-03T07:07:49;7.50;99.90
10964;DHT22;5534;48.784;9.190;2023-04-03T07:10:15;7.50;99.90
10964;DHT22;5534;48.784;9.190;2023-04-03T07:12:41;7.50;99.90
10964;DHT22;5534;48.784;9.190;2023-04-03T07:15:08;7.60;99.90
10964;DHT22;5534;48.784;9.190;2023-04-03T07:17:34;7.60;99.90
10964;DHT22;5534;48.784;9.190;2023-04-03T07:20:02;7.70;99.90
10964;DHT22;5534;48.784;9.190;2023-04-03T07:22:28;7.60;99.90
10964;DHT22;5534;48.784;9.190;2023-04-03T07:24:53;7.70;99.90
10964;DHT22;5534;48.784;9.190;2023-04-03T07:27:19;7.80;99.90
10964;DHT22;5534;48.784;9.190;2023-04-03T07:29:45;7.70;99.90
10964;DHT22;5534;48.784;9.190;2023-04-03T07:32:14;7.80;99.90
10964;DHT22;5534;48.784;9.190;2023-04-03T07:34:39;7.80;99.90
10964;DHT22;5534;48.784;9.190;2023-04-03T07:37:05;7.70;99.90
10964;DHT22;5534;48.784;9.190;2023-04-03T07:39:32;7.90;99.90
10964;DHT22;5534;48.784;9.190;2023-04-03T07:41:58;7.90;99.90
10964;DHT22;5534;48.784;9.190;2023-04-03T07:44:25;8.00;99.90
10964;DHT22;5534;48.784;9.190;2023-04-03T07:46:50;7.90;99.90
10964;DHT22;5534;48.784;9.190;2023-04-03T07:49:17;7.90;99.90
10964;DHT22;5534;48.784;9.190;2023-04-03T07:51:48;8.00;99.90
10964;DHT22;5534;48.784;9.190;2023-04-03T07:54:15;8.20;99.90
10964;DHT22;5534;48.784;9.190;2023-04-03T07:56:41;8.10;99.90
10964;DHT22;5534;48.784;9.190;2023-04-03T07:59:09;8.00;99.90
10964;DHT22;5534;48.784;9.190;2023-04-03T08:01:35;8.10;99.90
10964;DHT22;5534;48.784;9.190;2023-04-03T08:04:00;8.10;99.90
10964;DHT22;5534;48.784;9.190;2023-04-03T08:06:27;8.20;99.90
10964;DHT22;5534;48.784;9.190;2023-04-03T08:08:54;8.20;99.90
10964;DHT22;5534;48.784;9.190;2023-04-03T08:11:20;8.20;99.90
10964;DHT22;5534;48.784;9.190;2023-04-03T08:13:46;8.20;99.90
10964;DHT22;5534;48.784;9.190;2023-04-03T08:16:17;8.20;99.90
10964;DHT22;5534;48.784;9.190;2023-04-03T08:18:46;8.30;99.90
10964;DHT22;5534;48.784;9.190;2023-04-03T08:21:13;8.30;99.90
10964;DHT22;5534;48.784;9.190;2023-04-03T08:23:41;8.20;99.90
10964;DHT22;5534;48.784;9.190;2023-04-03T08:26:09;8.20;99.90
10964;DHT22;5534;48.784;9.190;2023-04-03T08:28:35;8.20;99.90
10964;DHT22;5534;48.784;9.190;2023-04-03T08:31:05;8.20;99.90
10964;DHT22;5534;48.784;9.190;2023-04-03T08:33:32;8.20;99.90
10964;DHT22;5534;48.784;9.190;2023-04-03T08:35:59;8.20;99.90
10964;DHT22;5534;48.784;9.190;2023-04-03T08:38:25;8.30;99.90
10964;DHT22;5534;48.784;9.190;2023-04-03T08:43:53;8.20;99.90
10964;DHT22;5534;48.784;9.190;2023-04-03T08:46:23;8.30;99.90
10964;DHT22;5534;48.784;9.190;2023-04-03T08:48:51;8.30;99.90
10964;DHT22;5534;48.784;9.190;2023-04-03T08:51:20;8.30;99.90
10964;DHT22;5534;48.784;9.190;2023-04-03T08:53:59;8.20;99.90
10964;DHT22;5534;48.784;9.190;2023-04-03T08:56:26;8.30;99.90
10964;DHT22;5534;48.784;9.190;2023-04-03T08:59:03;8.30;99.90
10964;DHT22;5534;48.784;9.190;2023-04-03T09:01:39;8.30;99.90
10964;DHT22;5534;48.784;9.190;2023-04-03T09:04:15;8.30;99.90
10964;DHT22;5534;48.784;9.190;2023-04-03T09:06:44;8.30;99.90
10964;DHT22;5534;48.784;9.190;2023-04-03T09:12:17;8.20;99.90
10964;DHT22;5534;48.784;9.190;2023-04-03T09:20:34;8.70;99.90
10964;DHT22;5534;48.784;9.190;2023-04-03T09:23:18;8.70;99.90
10964;DHT22;5534;48.784;9.190;2023-04-03T09:25:45;8.80;99.90
10964;DHT22;5534;48.784;9.190;2023-04-03T09:28:11;8.70;99.90
10964;DHT22;5534;48.784;9.190;2023-04-03T09:30:37;8.70;99.90
10964;DHT22;5534;48.784;9.190;2023-04-03T09:33:04;8.50;99.90
10964;DHT22;5534;48.784;9.190;2023-04-03T09:35:33;8.70;99.90
10964;DHT22;5534;48.784;9.190;2023-04-03T09:40:39;8.50;99.90
10964;DHT22;5534;48.784;9.190;2023-04-03T09:43:30;8.50;99.90
10964;DHT22;5534;48.784;9.190;2023-04-03T09:46:17;8.60;99.90
10964;DHT22;5534;48.784;9.190;2023-04-03T09:49:12;8.60;99.90
10964;DHT22;5534;48.784;9.190;2023-04-03T09:51:38;8.70;99.90
10964;DHT22;5534;48.784;9.190;2023-04-03T09:54:25;8.60;99.90
10964;DHT22;5534;48.784;9.190;2023-04-03T09:56:53;8.50;99.90
10964;DHT22;5534;48.784;9.190;2023-04-03T09:59:21;8.60;99.90
10964;DHT22;5534;48.784;9.190;2023-04-03T10:02:21;8.60;99.90
10964;DHT22;5534;48.784;9.190;2023-04-03T10:04:43;8.60;99.90
10964;DHT22;5534;48.784;9.190;2023-04-03T10:07:34;8.70;99.90
10964;DHT22;5534;48.784;9.190;2023-04-03T10:10:19;8.80;99.90
10964;DHT22;5534;48.784;9.190;2023-04-03T10:12:46;8.70;99.90
10964;DHT22;5534;48.784;9.190;2023-04-03T10:15:16;8.60;99.90
10964;DHT22;5534;48.784;9.190;2023-04-03T10:17:50;8.60;99.90
10964;DHT22;5534;48.784;9.190;2023-04-03T10:20:29;8.60;99.90
10964;DHT22;5534;48.784;9.190;2023-04-03T10:23:57;8.70;99.90
10964;DHT22;5534;48.784;9.190;2023-04-03T10:26:29;8.90;99.90
10964;DHT22;5534;48.784;9.190;2023-04-03T10:32:08;8.70;99.90
10964;DHT22;5534;48.784;9.190;2023-04-03T10:34:43;8.60;99.90
10964;DHT22;5534;48.784;9.190;2023-04-03T10:37:29;8.50;99.90
10964;DHT22;5534;48.784;9.190;2023-04-03T10:41:02;8.40;99.90
10964;DHT22;5534;48.784;9.190;2023-04-03T10:43:36;8.50;99.90
10964;DHT22;5534;48.784;9.190;2023-04-03T10:48:49;8.70;99.90
10964;DHT22;5534;48.784;9.190;2023-04-03T10:54:27;9.00;99.90
10964;DHT22;5534;48.784;9.190;2023-04-03T10:57:06;9.00;99.90
10964;DHT22;5534;48.784;9.190;2023-04-03T10:59:43;9.00;99.90
10964;DHT22;5534;48.784;9.190;2023-04-03T11:02:30;9.00;99.90
10964;DHT22;5534;48.784;9.190;2023-04-03T11:05:02;8.90;99.90
10964;DHT22;5534;48.784;9.190;2023-04-03T11:07:47;8.90;99.90
10964;DHT22;5534;48.784;9.190;2023-04-03T11:10:21;9.00;99.90
10964;DHT22;5534;48.784;9.190;2023-04-03T11:13:02;9.00;99.90
10964;DHT22;5534;48.784;9.190;2023-04-03T11:15:32;9.10;99.90
10964;DHT22;5534;48.784;9.190;2023-04-03T11:18:04;9.20;99.90
10964;DHT22;5534;48.784;9.190;2023-04-03T11:20:33;9.10;99.90
10964;DHT22;5534;48.784;9.190;2023-04-03T11:23:29;9.00;99.90
10964;DHT22;5534;48.784;9.190;2023-04-03T11:26:12;9.10;99.90
10964;DHT22;5534;48.784;9.190;2023-04-03T11:28:39;9.40;99.90
10964;DHT22;5534;48.784;9.190;2023-04-03T11:34:35;9.20;99.90
10964;DHT22;5534;48.784;9.190;2023-04-03T11:40:00;9.10;99.90
10964;DHT22;5534;48.784;9.190;2023-04-03T11:42:47;9.10;99.90
10964;DHT22;5534;48.784;9.190;2023-04-03T11:47:58;9.10;99.90
10964;DHT22;5534;48.784;9.190;2023-04-03T11:50:43;9.00;99.90
10964;DHT22;5534;48.784;9.190;2023-04-03T11:58:20;9.20;99.90
10964;DHT22;5534;48.784;9.190;2023-04-03T12:01:00;9.30;99.90
10964;DHT22;5534;48.784;9.190;2023-04-03T12:08:28;9.10;99.90
10964;DHT22;5534;48.784;9.190;2023-04-03T12:11:23;9.10;99.90
10964;DHT22;5534;48.784;9.190;2023-04-03T12:35:17;9.20;99.90
10964;DHT22;5534;48.784;9.190;2023-04-03T12:48:51;9.30;99.90
10964;DHT22;5534;48.784;9.190;2023-04-03T12:51:39;9.20;99.90
10964;DHT22;5534;48.784;9.190;2023-04-03T12:54:36;9.20;99.90
10964;DHT22;5534;48.784;9.190;2023-04-03T12:59:41;9.30;99.90
10964;DHT22;5534;48.784;9.190;2023-04-03T13:02:27;9.50;99.90
10964;DHT22;5534;48.784;9.190;2023-04-03T13:04:57;9.50;99.90
10964;DHT22;5534;48.784;9.190;2023-04-03T13:07:34;9.60;99.90
10964;DHT22;5534;48.784;9.190;2023-04-03T13:12:31;9.70;99.90
10964;DHT22;5534;48.784;9.190;2023-04-03T13:14:59;9.70;99.90
10964;DHT22;5534;48.784;9.190;2023-04-03T13:17:27;9.60;99.90
10964;DHT22;5534;48.784;9.190;2023-04-03T13:19:54;9.60;99.90
10964;DHT22;5534;48.784;9.190;2023-04-03T13:22:38;9.50;99.90
10964;DHT22;5534;48.784;9.190;2023-04-03T13:25:11;9.50;99.90
10964;DHT22;5534;48.784;9.190;2023-04-03T13:27:38;9.50;99.90
10964;DHT22;5534;48.784;9.190;2023-04-03T13:30:38;9.50;99.90
10964;DHT22;5534;48.784;9.190;2023-04-03T13:33:06;9.50;99.90
10964;DHT22;5534;48.784;9.190;2023-04-03T13:35:46;9.50;99.90
10964;DHT22;5534;48.784;9.190;2023-04-03T13:40:55;9.60;99.90
10964;DHT22;5534;48.784;9.190;2023-04-03T13:43:25;9.60;99.90
10964;DHT22;5534;48.784;9.190;2023-04-03T13:48:48;9.90;99.40
10964;DHT22;5534;48.784;9.190;2023-04-03T13:51:17;10.00;98.60
10964;DHT22;5534;48.784;9.190;2023-04-03T13:56:33;9.90;98.90
10964;DHT22;5534;48.784;9.190;2023-04-03T14:01:44;10.20;97.30
10964;DHT22;5534;48.784;9.190;2023-04-03T14:04:23;10.10;97.40
10964;DHT22;5534;48.784;9.190;2023-04-03T14:06:50;10.00;97.50
10964;DHT22;5534;48.784;9.190;2023-04-03T14:09:18;9.90;97.70
10964;DHT22;5534;48.784;9.190;2023-04-03T14:11:45;9.70;98.10
10964;DHT22;5534;48.784;9.190;2023-04-03T14:14:21;9.80;98.80
10964;DHT22;5534;48.784;9.190;2023-04-03T14:16:52;9.70;98.80
10964;DHT22;5534;48.784;9.190;2023-04-03T14:19:25;9.80;98.40
10964;DHT22;5534;48.784;9.190;2023-04-03T14:21:52;9.80;98.70
10964;DHT22;5534;48.784;9.190;2023-04-03T14:24:19;9.80;98.40
10964;DHT22;5534;48.784;9.190;2023-04-03T14:26:51;9.80;98.60
10964;DHT22;5534;48.784;9.190;2023-04-03T14:29:17;9.70;97.80
10964;DHT22;5534;48.784;9.190;2023-04-03T14:31:45;9.60;98.20
10964;DHT22;5534;48.784;9.190;2023-04-03T14:34:12;9.60;98.50
10964;DHT22;5534;48.784;9.190;2023-04-03T14:36:39;9.50;98.20
10964;DHT22;5534;48.784;9.190;2023-04-03T14:39:07;9.60;98.50
10964;DHT22;5534;48.784;9.190;2023-04-03T14:41:34;9.70;98.20
10964;DHT22;5534;48.784;9.190;2023-04-03T14:44:00;9.90;97.60
10964;DHT22;5534;48.784;9.190;2023-04-03T14:46:32;10.00;97.50
10964;DHT22;5534;48.784;9.190;2023-04-03T14:48:58;10.10;96.70
10964;DHT22;5534;48.784;9.190;2023-04-03T14:51:24;10.10;96.40
10964;DHT22;5534;48.784;9.190;2023-04-03T14:53:51;10.00;96.60
10964;DHT22;5534;48.784;9.190;2023-04-03T14:56:23;9.90;97.30
10964;DHT22;5534;48.784;9.190;2023-04-03T14:58:55;9.90;96.90
10964;DHT22;5534;48.784;9.190;2023-04-03T15:01:21;10.00;96.60
10964;DHT22;5534;48.784;9.190;2023-04-03T15:03:47;9.80;96.50
10964;DHT22;5534;48.784;9.190;2023-04-03T15:06:14;9.80;96.70
10964;DHT22;5534;48.784;9.190;2023-04-03T15:08:41;9.80;96.70
10964;DHT22;5534;48.784;9.190;2023-04-03T15:11:08;9.70;96.10
10964;DHT22;5534;48.784;9.190;2023-04-03T15:13:35;9.70;96.40
10964;DHT22;5534;48.784;9.190;2023-04-03T15:16:01;9.70;96.40
10964;DHT22;5534;48.784;9.190;2023-04-03T15:18:32;9.70;96.50
10964;DHT22;5534;48.784;9.190;2023-04-03T15:21:00;9.60;96.10
10964;DHT22;5534;48.784;9.190;2023-04-03T15:23:27;9.60;95.90
10964;DHT22;5534;48.784;9.190;2023-04-03T15:25:54;9.60;95.60
10964;DHT22;5534;48.784;9.190;2023-04-03T15:28:28;9.60;95.30
10964;DHT22;5534;48.784;9.190;2023-04-03T15:30:54;9.60;95.00
10964;DHT22;5534;48.784;9.190;2023-04-03T15:33:23;9.60;95.20
10964;DHT22;5534;48.784;9.190;2023-04-03T15:35:48;9.50;95.20
10964;DHT22;5534;48.784;9.190;2023-04-03T15:38:14;9.60;95.70
10964;DHT22;5534;48.784;9.190;2023-04-03T15:40:40;9.70;95.20
10964;DHT22;5534;48.784;9.190;2023-04-03T15:43:08;9.70;95.10
10964;DHT22;5534;48.784;9.190;2023-04-03T15:45:35;9.60;95.50
10964;DHT22;5534;48.784;9.190;2023-04-03T15:48:03;9.50;95.70
10964;DHT22;5534;48.784;9.190;2023-04-03T15:50:29;9.40;95.70
10964;DHT22;5534;48.784;9.190;2023-04-03T15:52:54;9.40;95.90
10964;DHT22;5534;48.784;9.190;2023-04-03T15:55:25;9.60;96.00
10964;DHT22;5534;48.784;9.190;2023-04-03T15:57:52;9.70;95.30
10964;DHT22;5534;48.784;9.190;2023-04-03T16:00:19;9.70;95.20
10964;DHT22;5534;48.784;9.190;2023-04-03T16:02:46;9.70;94.50
10964;DHT22;5534;48.784;9.190;2023-04-03T16:05:13;9.70;94.40
10964;DHT22;5534;48.784;9.190;2023-04-03T16:07:39;9.60;94.50
10964;DHT22;5534;48.784;9.190;2023-04-03T16:10:08;9.50;94.90
10964;DHT22;5534;48.784;9.190;2023-04-03T16:12:34;9.60;95.10
10964;DHT22;5534;48.784;9.190;2023-04-03T16:15:00;9.70;94.90
10964;DHT22;5534;48.784;9.190;2023-04-03T16:17:27;9.70;94.60
10964;DHT22;5534;48.784;9.190;2023-04-03T16:19:54;9.70;94.00
10964;DHT22;5534;48.784;9.190;2023-04-03T16:22:21;9.70;94.20
10964;DHT22;5534;48.784;9.190;2023-04-03T16:24:49;9.60;93.50
10964;DHT22;5534;48.784;9.190;2023-04-03T16:27:15;9.50;93.60
10964;DHT22;5534;48.784;9.190;2023-04-03T16:29:41;9.40;93.00
10964;DHT22;5534;48.784;9.190;2023-04-03T16:32:07;9.40;93.30
10964;DHT22;5534;48.784;9.190;2023-04-03T16:34:33;9.40;93.70
10964;DHT22;5534;48.784;9.190;2023-04-03T16:36:59;9.50;93.50
10964;DHT22;5534;48.784;9.190;2023-04-03T16:39:25;9.60;93.10
10964;DHT22;5534;48.784;9.190;2023-04-03T16:41:51;9.50;93.40
10964;DHT22;5534;48.784;9.190;2023-04-03T16:44:16;9.40;93.90
10964;DHT22;5534;48.784;9.190;2023-04-03T16:46:42;9.40;93.80
10964;DHT22;5534;48.784;9.190;2023-04-03T16:49:08;9.50;94.00
10964;DHT22;5534;48.784;9.190;2023-04-03T16:51:34;9.70;93.70
10964;DHT22;5534;48.784;9.190;2023-04-03T16:54:00;9.70;94.10
10964;DHT22;5534;48.784;9.190;2023-04-03T16:56:25;9.80;94.10
10964;DHT22;5534;48.784;9.190;2023-04-03T16:58:54;9.70;93.90
10964;DHT22;5534;48.784;9.190;2023-04-03T17:01:22;9.70;93.50
10964;DHT22;5534;48.784;9.190;2023-04-03T17:03:48;9.60;93.60
10964;DHT22;5534;48.784;9.190;2023-04-03T17:06:19;9.50;93.90
10964;DHT22;5534;48.784;9.190;2023-04-03T17:08:47;9.50;94.60
10964;DHT22;5534;48.784;9.190;2023-04-03T17:11:14;9.50;94.20
10964;DHT22;5534;48.784;9.190;2023-04-03T17:13:40;9.50;93.70
10964;DHT22;5534;48.784;9.190;2023-04-03T17:16:09;9.40;94.20
10964;DHT22;5534;48.784;9.190;2023-04-03T17:18:36;9.50;94.10
10964;DHT22;5534;48.784;9.190;2023-04-03T17:21:03;9.40;94.50
10964;DHT22;5534;48.784;9.190;2023-04-03T17:23:30;9.30;94.60
10964;DHT22;5534;48.784;9.190;2023-04-03T17:25:56;9.40;93.90
10964;DHT22;5534;48.784;9.190;2023-04-03T17:28:22;9.40;94.10
10964;DHT22;5534;48.784;9.190;2023-04-03T17:31:01;9.30;94.70
10964;DHT22;5534;48.784;9.190;2023-04-03T17:33:28;9.30;94.20
10964;DHT22;5534;48.784;9.190;2023-04-03T17:36:00;9.20;94.60
10964;DHT22;5534;48.784;9.190;2023-04-03T17:38:27;9.10;94.50
10964;DHT22;5534;48.784;9.190;2023-04-03T17:41:02;9.20;95.40
10964;DHT22;5534;48.784;9.190;2023-04-03T17:43:28;9.20;95.00
10964;DHT22;5534;48.784;9.190;2023-04-03T17:46:03;9.20;95.20
10964;DHT22;5534;48.784;9.190;2023-04-03T17:48:30;9.30;94.90
10964;DHT22;5534;48.784;9.190;2023-04-03T17:50:56;9.20;94.80